sensor_id;sensor_type;location;lat;lon;timestamp;temperature;humidity
1878;DHT22;939;51.426;6.972;2024-01-30T00:01:58;9.80;99.90
1878;DHT22;939;51.426;6.972;2024-01-30T00:04:25;9.90;99.90
1878;DHT22;939;51.426;6.972;2024-01-30T00:06:52;9.90;99.90
1878;DHT22;939;51.426;6.972;2024-01-30T00:09:19;9.90;99.90
1878;DHT22;939;51.426;6.972;2024-01-30T00:11:47;9.80;99.90
1878;DHT22;939;51.426;6.972;2024-01-30T00:14:14;9.80;99.90
1878;DHT22;939;51.426;6.972;2024-01-30T00:16:41;9.80;99.90
1878;DHT22;939;51.426;6.972;2024-01-30T00:19:08;9.90;99.90
1878;DHT22;939;51.426;6.972;2024-01-30T00:21:37;9.90;99.90
1878;DHT22;939;51.426;6.972;2024-01-30T00:24:04;9.90;99.90
1878;DHT22;939;51.426;6.972;2024-01-30T00:26:31;9.80;99.90
1878;DHT22;939;51.426;6.972;2024-01-30T00:28:59;9.80;99.90
1878;DHT22;939;51.426;6.972;2024-01-30T00:31:26;9.90;99.90
1878;DHT22;939;51.426;6.972;2024-01-30T00:33:53;9.80;99.90
1878;DHT22;939;51.426;6.972;2024-01-30T00:36:20;9.80;99.90
1878;DHT22;939;51.426;6.972;2024-01-30T00:38:47;9.90;99.90
1878;DHT22;939;51.426;6.972;2024-01-30T00:41:14;9.80;99.90
1878;DHT22;939;51.426;6.972;2024-01-30T00:43:41;9.80;99.90
1878;DHT22;939;51.426;6.972;2024-01-30T00:46:09;9.80;99.90
1878;DHT22;939;51.426;6.972;2024-01-30T00:48:36;9.90;99.90
1878;DHT22;939;51.426;6.972;2024-01-30T00:51:03;9.80;99.90
1878;DHT22;939;51.426;6.972;2024-01-30T00:53:30;9.80;99.90
1878;DHT22;939;51.426;6.972;2024-01-30T00:55:57;9.70;99.90
1878;DHT22;939;51.426;6.972;2024-01-30T00:58:24;9.80;99.90
1878;DHT22;939;51.426;6.972;2024-01-30T01:00:51;9.80;99.90
1878;DHT22;939;51.426;6.972;2024-01-30T01:03:19;9.80;99.90
1878;DHT22;939;51.426;6.972;2024-01-30T01:05:46;9.80;99.90
1878;DHT22;939;51.426;6.972;2024-01-30T01:08:13;9.80;99.90
1878;DHT22;939;51.426;6.972;2024-01-30T01:10:40;9.70;99.90
1878;DHT22;939;51.426;6.972;2024-01-30T01:13:07;9.70;99.90
1878;DHT22;939;51.426;6.972;2024-01-30T01:15:35;9.70;99.90
1878;DHT22;939;51.426;6.972;2024-01-30T01:18:03;9.70;99.90
1878;DHT22;939;51.426;6.972;2024-01-30T01:20:31;9.70;99.90
1878;DHT22;939;51.426;6.972;2024-01-30T01:22:58;9.70;99.90
1878;DHT22;939;51.426;6.972;2024-01-30T01:25:25;9.80;99.90
1878;DHT22;939;51.426;6.972;2024-01-30T01:27:52;9.80;99.90
1878;DHT22;939;51.426;6.972;2024-01-30T01:30:18;9.80;99.90
1878;DHT22;939;51.426;6.972;2024-01-30T01:32:47;9.80;99.90
1878;DHT22;939;51.426;6.972;2024-01-30T01:35:17;9.80;99.90
1878;DHT22;939;51.426;6.972;2024-01-30T01:37:45;9.80;99.90
1878;DHT22;939;51.426;6.972;2024-01-30T01:40:12;9.80;99.90
1878;DHT22;939;51.426;6.972;2024-01-30T01:42:39;9.70;99.90
1878;DHT22;939;51.426;6.972;2024-01-30T01:45:07;9.70;99.90
1878;DHT22;939;51.426;6.972;2024-01-30T01:47:34;9.80;99.90
1878;DHT22;939;51.426;6.972;2024-01-30T01:50:01;9.90;99.90
1878;DHT22;939;51.426;6.972;2024-01-30T01:52:29;9.90;99.90
1878;DHT22;939;51.426;6.972;2024-01-30T01:54:57;9.80;99.90
1878;DHT22;939;51.426;6.972;2024-01-30T01:57:24;9.90;99.90
1878;DHT22;939;51.426;6.972;2024-01-30T01:59:51;9.90;99.90
1878;DHT22;939;51.426;6.972;2024-01-30T02:02:19;9.90;99.90
1878;DHT22;939;51.426;6.972;2024-01-30T02:04:47;10.00;99.90
1878;DHT22;939;51.426;6.972;2024-01-30T02:07:13;10.00;99.90
1878;DHT22;939;51.426;6.972;2024-01-30T02:09:40;10.00;99.90
1878;DHT22;939;51.426;6.972;2024-01-30T02:12:09;9.90;99.90
1878;DHT22;939;51.426;6.972;2024-01-30T02:14:44;9.90;99.90
1878;DHT22;939;51.426;6.972;2024-01-30T02:17:11;10.10;99.90
1878;DHT22;939;51.426;6.972;2024-01-30T02:19:38;10.00;99.90
1878;DHT22;939;51.426;6.972;2024-01-30T02:22:07;10.00;99.90
1878;DHT22;939;51.426;6.972;2024-01-30T02:24:34;10.00;99.90
1878;DHT22;939;51.426;6.972;2024-01-30T02:27:01;10.10;99.90
1878;DHT22;939;51.426;6.972;2024-01-30T02:29:28;10.00;99.90
1878;DHT22;939;51.426;6.972;2024-01-30T02:31:55;9.80;99.90
1878;DHT22;939;51.426;6.972;2024-01-30T02:34:22;9.90;99.90
1878;DHT22;939;51.426;6.972;2024-01-30T02:36:49;9.90;99.90
1878;DHT22;939;51.426;6.972;2024-01-30T02:39:17;9.90;99.90
1878;DHT22;939;51.426;6.972;2024-01-30T02:41:44;9.80;99.90
1878;DHT22;939;51.426;6.972;2024-01-30T02:44:10;9.80;99.90
1878;DHT22;939;51.426;6.972;2024-01-30T02:46:37;9.80;99.90
1878;DHT22;939;51.426;6.972;2024-01-30T02:49:04;9.80;99.90
1878;DHT22;939;51.426;6.972;2024-01-30T02:51:31;9.80;99.90
1878;DHT22;939;51.426;6.972;2024-01-30T02:53:58;9.80;99.90
1878;DHT22;939;51.426;6.972;2024-01-30T02:56:26;9.70;99.90
1878;DHT22;939;51.426;6.972;2024-01-30T02:58:53;9.80;99.90
1878;DHT22;939;51.426;6.972;2024-01-30T03:01:20;9.80;99.90
1878;DHT22;939;51.426;6.972;2024-01-30T03:03:47;9.70;99.90
1878;DHT22;939;51.426;6.972;2024-01-30T03:06:14;9.70;99.90
1878;DHT22;939;51.426;6.972;2024-01-30T03:08:43;9.70;99.90
1878;DHT22;939;51.426;6.972;2024-01-30T03:11:10;9.70;99.90
1878;DHT22;939;51.426;6.972;2024-01-30T03:13:38;9.70;99.90
1878;DHT22;939;51.426;6.972;2024-01-30T03:16:06;9.70;99.90
1878;DHT22;939;51.426;6.972;2024-01-30T03:18:34;9.70;99.90
1878;DHT22;939;51.426;6.972;2024-01-30T03:21:01;9.70;99.90
1878;DHT22;939;51.426;6.972;2024-01-30T03:23:28;9.80;99.90
1878;DHT22;939;51.426;6.972;2024-01-30T03:25:57;9.90;99.90
1878;DHT22;939;51.426;6.972;2024-01-30T03:28:24;9.80;99.90
1878;DHT22;939;51.426;6.972;2024-01-30T03:30:53;9.90;99.90
1878;DHT22;939;51.426;6.972;2024-01-30T03:33:20;10.00;99.90
1878;DHT22;939;51.426;6.972;2024-01-30T03:35:47;9.90;99.90
1878;DHT22;939;51.426;6.972;2024-01-30T03:38:13;9.90;99.90
1878;DHT22;939;51.426;6.972;2024-01-30T03:40:40;9.80;99.90
1878;DHT22;939;51.426;6.972;2024-01-30T03:43:07;9.80;99.90
1878;DHT22;939;51.426;6.972;2024-01-30T03:45:34;9.80;99.90
1878;DHT22;939;51.426;6.972;2024-01-30T03:48:03;9.70;99.90
1878;DHT22;939;51.426;6.972;2024-01-30T03:50:29;9.70;99.90
1878;DHT22;939;51.426;6.972;2024-01-30T03:52:56;9.70;99.90
1878;DHT22;939;51.426;6.972;2024-01-30T03:55:23;9.70;99.90
1878;DHT22;939;51.426;6.972;2024-01-30T03:57:50;9.70;99.90
1878;DHT22;939;51.426;6.972;2024-01-30T04:00:17;9.80;99.90
1878;DHT22;939;51.426;6.972;2024-01-30T04:02:45;9.70;99.90
1878;DHT22;939;51.426;6.972;2024-01-30T04:05:13;9.70;99.90
1878;DHT22;939;51.426;6.972;2024-01-30T04:07:40;9.80;99.90
1878;DHT22;939;51.426;6.972;2024-01-30T04:10:09;9.80;99.90
1878;DHT22;939;51.426;6.972;2024-01-30T04:12:36;9.80;99.90
1878;DHT22;939;51.426;6.972;2024-01-30T04:15:03;9.90;99.90
1878;DHT22;939;51.426;6.972;2024-01-30T04:17:30;9.90;99.90
1878;DHT22;939;51.426;6.972;2024-01-30T04:19:58;9.80;99.90
1878;DHT22;939;51.426;6.972;2024-01-30T04:22:26;9.80;99.90
1878;DHT22;939;51.426;6.972;2024-01-30T04:24:53;9.80;99.90
1878;DHT22;939;51.426;6.972;2024-01-30T04:27:20;9.80;99.90
1878;DHT22;939;51.426;6.972;2024-01-30T04:29:47;9.80;99.90
1878;DHT22;939;51.426;6.972;2024-01-30T04:32:14;9.70;99.90
1878;DHT22;939;51.426;6.972;2024-01-30T04:34:41;9.70;99.90
1878;DHT22;939;51.426;6.972;2024-01-30T04:37:07;9.70;99.90
1878;DHT22;939;51.426;6.972;2024-01-30T04:39:36;9.60;99.90
1878;DHT22;939;51.426;6.972;2024-01-30T04:42:03;9.60;99.90
1878;DHT22;939;51.426;6.972;2024-01-30T04:44:30;9.70;99.90
1878;DHT22;939;51.426;6.972;2024-01-30T04:46:57;9.60;99.90
1878;DHT22;939;51.426;6.972;2024-01-30T04:49:26;9.80;99.90
1878;DHT22;939;51.426;6.972;2024-01-30T04:51:54;9.70;99.90
1878;DHT22;939;51.426;6.972;2024-01-30T04:54:21;9.80;99.90
1878;DHT22;939;51.426;6.972;2024-01-30T04:56:50;9.80;99.90
1878;DHT22;939;51.426;6.972;2024-01-30T04:59:16;9.70;99.90
1878;DHT22;939;51.426;6.972;2024-01-30T05:01:43;9.80;99.90
1878;DHT22;939;51.426;6.972;2024-01-30T05:04:10;9.80;99.90
1878;DHT22;939;51.426;6.972;2024-01-30T05:06:38;9.90;99.90
1878;DHT22;939;51.426;6.972;2024-01-30T05:09:04;9.90;99.90
1878;DHT22;939;51.426;6.972;2024-01-30T05:11:36;9.90;99.90
1878;DHT22;939;51.426;6.972;2024-01-30T05:14:04;9.80;99.90
1878;DHT22;939;51.426;6.972;2024-01-30T05:16:32;9.80;99.90
1878;DHT22;939;51.426;6.972;2024-01-30T05:18:59;9.70;99.90
1878;DHT22;939;51.426;6.972;2024-01-30T05:21:26;9.70;99.90
1878;DHT22;939;51.426;6.972;2024-01-30T05:23:53;9.70;99.90
1878;DHT22;939;51.426;6.972;2024-01-30T05:26:19;9.80;99.90
1878;DHT22;939;51.426;6.972;2024-01-30T05:28:48;9.70;99.90
1878;DHT22;939;51.426;6.972;2024-01-30T05:31:16;9.60;99.90
1878;DHT22;939;51.426;6.972;2024-01-30T05:33:43;9.70;99.90
1878;DHT22;939;51.426;6.972;2024-01-30T05:36:11;9.70;99.90
1878;DHT22;939;51.426;6.972;2024-01-30T05:38:38;9.70;99.90
1878;DHT22;939;51.426;6.972;2024-01-30T05:41:05;9.70;99.90
1878;DHT22;939;51.426;6.972;2024-01-30T05:43:32;9.70;99.90
1878;DHT22;939;51.426;6.972;2024-01-30T05:45:59;9.70;99.90
1878;DHT22;939;51.426;6.972;2024-01-30T05:48:27;9.60;99.90
1878;DHT22;939;51.426;6.972;2024-01-30T05:50:54;9.70;99.90
1878;DHT22;939;51.426;6.972;2024-01-30T05:53:22;9.80;99.90
1878;DHT22;939;51.426;6.972;2024-01-30T05:55:49;9.90;99.90
1878;DHT22;939;51.426;6.972;2024-01-30T05:58:17;9.70;99.90
1878;DHT22;939;51.426;6.972;2024-01-30T06:00:44;9.50;99.90
1878;DHT22;939;51.426;6.972;2024-01-30T06:03:11;9.50;99.90
1878;DHT22;939;51.426;6.972;2024-01-30T06:05:39;9.40;99.90
1878;DHT22;939;51.426;6.972;2024-01-30T06:08:06;9.40;99.90
1878;DHT22;939;51.426;6.972;2024-01-30T06:10:33;9.40;99.90
1878;DHT22;939;51.426;6.972;2024-01-30T06:13:00;9.40;99.90
1878;DHT22;939;51.426;6.972;2024-01-30T06:15:27;9.30;99.90
1878;DHT22;939;51.426;6.972;2024-01-30T06:17:55;9.30;99.90
1878;DHT22;939;51.426;6.972;2024-01-30T06:20:22;9.40;99.90
1878;DHT22;939;51.426;6.972;2024-01-30T06:22:50;9.40;99.90
1878;DHT22;939;51.426;6.972;2024-01-30T06:25:17;9.40;99.90
1878;DHT22;939;51.426;6.972;2024-01-30T06:27:47;9.50;99.90
1878;DHT22;939;51.426;6.972;2024-01-30T06:30:14;9.50;99.90
1878;DHT22;939;51.426;6.972;2024-01-30T06:32:42;9.60;99.90
1878;DHT22;939;51.426;6.972;2024-01-30T06:35:09;9.70;99.90
1878;DHT22;939;51.426;6.972;2024-01-30T06:37:36;9.60;99.90
1878;DHT22;939;51.426;6.972;2024-01-30T06:40:06;9.60;99.90
1878;DHT22;939;51.426;6.972;2024-01-30T06:42:33;9.60;99.90
1878;DHT22;939;51.426;6.972;2024-01-30T06:45:02;9.70;99.90
1878;DHT22;939;51.426;6.972;2024-01-30T06:47:29;9.70;99.90
1878;DHT22;939;51.426;6.972;2024-01-30T06:49:56;9.80;99.90
1878;DHT22;939;51.426;6.972;2024-01-30T06:52:23;9.70;99.90
1878;DHT22;939;51.426;6.972;2024-01-30T06:54:50;9.70;99.90
1878;DHT22;939;51.426;6.972;2024-01-30T06:57:18;9.70;99.90
1878;DHT22;939;51.426;6.972;2024-01-30T06:59:47;9.80;99.90
1878;DHT22;939;51.426;6.972;2024-01-30T07:02:14;9.70;99.90
1878;DHT22;939;51.426;6.972;2024-01-30T07:04:41;9.70;99.90
1878;DHT22;939;51.426;6.972;2024-01-30T07:07:08;9.80;99.90
1878;DHT22;939;51.426;6.972;2024-01-30T07:09:38;9.80;99.90
1878;DHT22;939;51.426;6.972;2024-01-30T07:12:05;9.80;99.90
1878;DHT22;939;51.426;6.972;2024-01-30T07:14:34;9.80;99.90
1878;DHT22;939;51.426;6.972;2024-01-30T07:17:02;9.70;99.90
1878;DHT22;939;51.426;6.972;2024-01-30T07:19:29;9.70;99.90
1878;DHT22;939;51.426;6.972;2024-01-30T07:21:56;9.70;99.90
1878;DHT22;939;51.426;6.972;2024-01-30T07:24:23;9.70;99.90
1878;DHT22;939;51.426;6.972;2024-01-30T07:26:50;9.70;99.90
1878;DHT22;939;51.426;6.972;2024-01-30T07:29:17;9.70;99.90
1878;DHT22;939;51.426;6.972;2024-01-30T07:31:45;9.70;99.90
1878;DHT22;939;51.426;6.972;2024-01-30T07:34:12;9.60;99.90
1878;DHT22;939;51.426;6.972;2024-01-30T07:36:39;9.80;99.90
1878;DHT22;939;51.426;6.972;2024-01-30T07:39:06;9.90;99.90
1878;DHT22;939;51.426;6.972;2024-01-30T07:41:33;9.90;99.90
1878;DHT22;939;51.426;6.972;2024-01-30T07:44:00;9.90;99.90
1878;DHT22;939;51.426;6.972;2024-01-30T07:46:27;10.00;99.90
1878;DHT22;939;51.426;6.972;2024-01-30T07:48:55;10.10;99.90
1878;DHT22;939;51.426;6.972;2024-01-30T07:51:23;10.00;99.90
1878;DHT22;939;51.426;6.972;2024-01-30T07:53:53;9.90;99.90
1878;DHT22;939;51.426;6.972;2024-01-30T07:56:20;9.80;99.90
1878;DHT22;939;51.426;6.972;2024-01-30T07:58:46;9.90;99.90
1878;DHT22;939;51.426;6.972;2024-01-30T08:01:15;9.90;99.90
1878;DHT22;939;51.426;6.972;2024-01-30T08:03:42;9.90;99.90
1878;DHT22;939;51.426;6.972;2024-01-30T08:06:10;10.00;99.90
1878;DHT22;939;51.426;6.972;2024-01-30T08:08:37;10.00;99.90
1878;DHT22;939;51.426;6.972;2024-01-30T08:11:05;10.00;99.90
1878;DHT22;939;51.426;6.972;2024-01-30T08:13:33;10.10;99.90
1878;DHT22;939;51.426;6.972;2024-01-30T08:16:00;10.10;99.90
1878;DHT22;939;51.426;6.972;2024-01-30T08:18:27;10.10;99.90
1878;DHT22;939;51.426;6.972;2024-01-30T08:20:53;10.10;99.90
1878;DHT22;939;51.426;6.972;2024-01-30T08:23:22;10.10;99.90
1878;DHT22;939;51.426;6.972;2024-01-30T08:25:48;10.20;99.90
1878;DHT22;939;51.426;6.972;2024-01-30T08:28:15;10.20;99.90
1878;DHT22;939;51.426;6.972;2024-01-30T08:30:42;10.20;99.90
1878;DHT22;939;51.426;6.972;2024-01-30T08:33:12;10.40;99.90
1878;DHT22;939;51.426;6.972;2024-01-30T08:35:39;10.40;99.90
1878;DHT22;939;51.426;6.972;2024-01-30T08:38:09;10.60;99.90
1878;DHT22;939;51.426;6.972;2024-01-30T08:40:39;10.60;99.90
1878;DHT22;939;51.426;6.972;2024-01-30T08:43:06;10.70;99.90
1878;DHT22;939;51.426;6.972;2024-01-30T08:45:35;10.80;99.90
1878;DHT22;939;51.426;6.972;2024-01-30T08:48:24;10.80;99.90
1878;DHT22;939;51.426;6.972;2024-01-30T08:54:26;10.80;99.90
1878;DHT22;939;51.426;6.972;2024-01-30T08:56:55;10.70;99.90
1878;DHT22;939;51.426;6.972;2024-01-30T08:59:23;10.80;99.90
1878;DHT22;939;51.426;6.972;2024-01-30T09:01:50;10.80;99.90
1878;DHT22;939;51.426;6.972;2024-01-30T09:04:20;10.90;99.90
1878;DHT22;939;51.426;6.972;2024-01-30T09:06:48;10.90;99.90
1878;DHT22;939;51.426;6.972;2024-01-30T09:09:15;10.90;99.90
1878;DHT22;939;51.426;6.972;2024-01-30T09:11:43;10.90;99.90
1878;DHT22;939;51.426;6.972;2024-01-30T09:14:11;10.90;99.90
1878;DHT22;939;51.426;6.972;2024-01-30T09:16:38;11.00;99.90
1878;DHT22;939;51.426;6.972;2024-01-30T09:19:05;10.90;99.90
1878;DHT22;939;51.426;6.972;2024-01-30T09:21:32;10.90;99.90
1878;DHT22;939;51.426;6.972;2024-01-30T09:24:02;10.90;99.90
1878;DHT22;939;51.426;6.972;2024-01-30T09:26:29;10.90;99.90
1878;DHT22;939;51.426;6.972;2024-01-30T09:28:56;11.00;99.90
1878;DHT22;939;51.426;6.972;2024-01-30T09:31:24;11.10;99.90
1878;DHT22;939;51.426;6.972;2024-01-30T09:33:51;11.10;99.90
1878;DHT22;939;51.426;6.972;2024-01-30T09:36:19;11.10;99.90
1878;DHT22;939;51.426;6.972;2024-01-30T09:38:46;11.10;99.90
1878;DHT22;939;51.426;6.972;2024-01-30T09:41:13;11.20;99.90
1878;DHT22;939;51.426;6.972;2024-01-30T09:43:42;11.20;99.90
1878;DHT22;939;51.426;6.972;2024-01-30T09:46:15;11.30;99.90
1878;DHT22;939;51.426;6.972;2024-01-30T09:48:46;11.40;99.90
1878;DHT22;939;51.426;6.972;2024-01-30T09:51:14;11.40;99.90
1878;DHT22;939;51.426;6.972;2024-01-30T09:53:42;11.70;99.90
1878;DHT22;939;51.426;6.972;2024-01-30T09:56:10;11.90;99.90
1878;DHT22;939;51.426;6.972;2024-01-30T09:58:38;12.20;99.90
1878;DHT22;939;51.426;6.972;2024-01-30T10:01:06;12.10;99.90
1878;DHT22;939;51.426;6.972;2024-01-30T10:03:33;12.10;99.90
1878;DHT22;939;51.426;6.972;2024-01-30T10:06:01;12.10;99.90
1878;DHT22;939;51.426;6.972;2024-01-30T10:08:28;12.10;99.90
1878;DHT22;939;51.426;6.972;2024-01-30T10:10:55;12.30;99.90
1878;DHT22;939;51.426;6.972;2024-01-30T10:13:22;12.40;99.90
1878;DHT22;939;51.426;6.972;2024-01-30T10:15:49;12.30;99.90
1878;DHT22;939;51.426;6.972;2024-01-30T10:18:17;12.40;99.90
1878;DHT22;939;51.426;6.972;2024-01-30T10:20:45;12.50;99.90
1878;DHT22;939;51.426;6.972;2024-01-30T10:23:14;12.60;99.90
1878;DHT22;939;51.426;6.972;2024-01-30T10:25:41;12.70;99.90
1878;DHT22;939;51.426;6.972;2024-01-30T10:28:07;12.80;99.90
1878;DHT22;939;51.426;6.972;2024-01-30T10:30:34;12.70;99.90
1878;DHT22;939;51.426;6.972;2024-01-30T10:33:02;12.70;99.90
1878;DHT22;939;51.426;6.972;2024-01-30T10:35:29;12.60;99.90
1878;DHT22;939;51.426;6.972;2024-01-30T10:37:57;12.70;99.90
1878;DHT22;939;51.426;6.972;2024-01-30T10:40:29;12.70;99.90
1878;DHT22;939;51.426;6.972;2024-01-30T10:42:56;12.60;99.90
1878;DHT22;939;51.426;6.972;2024-01-30T10:45:26;12.60;99.90
1878;DHT22;939;51.426;6.972;2024-01-30T10:47:55;12.60;99.90
1878;DHT22;939;51.426;6.972;2024-01-30T10:50:24;12.60;99.90
1878;DHT22;939;51.426;6.972;2024-01-30T10:52:52;12.70;99.90
1878;DHT22;939;51.426;6.972;2024-01-30T10:55:22;12.70;99.90
1878;DHT22;939;51.426;6.972;2024-01-30T10:57:52;12.70;99.90
1878;DHT22;939;51.426;6.972;2024-01-30T11:00:19;12.60;99.90
1878;DHT22;939;51.426;6.972;2024-01-30T11:02:49;12.70;99.90
1878;DHT22;939;51.426;6.972;2024-01-30T11:05:23;12.70;99.90
1878;DHT22;939;51.426;6.972;2024-01-30T11:07:52;12.80;99.90
1878;DHT22;939;51.426;6.972;2024-01-30T11:10:19;12.80;99.90
1878;DHT22;939;51.426;6.972;2024-01-30T11:12:46;12.80;99.90
1878;DHT22;939;51.426;6.972;2024-01-30T11:15:17;12.80;99.90
1878;DHT22;939;51.426;6.972;2024-01-30T11:17:49;12.80;99.90
1878;DHT22;939;51.426;6.972;2024-01-30T11:20:21;12.80;99.90
1878;DHT22;939;51.426;6.972;2024-01-30T11:22:51;12.90;99.90
1878;DHT22;939;51.426;6.972;2024-01-30T11:25:25;12.90;99.90
1878;DHT22;939;51.426;6.972;2024-01-30T11:27:54;12.90;99.90
1878;DHT22;939;51.426;6.972;2024-01-30T11:31:02;13.10;99.90
1878;DHT22;939;51.426;6.972;2024-01-30T11:33:30;13.10;99.90
1878;DHT22;939;51.426;6.972;2024-01-30T11:36:00;13.10;99.90
1878;DHT22;939;51.426;6.972;2024-01-30T11:38:40;13.00;99.90
1878;DHT22;939;51.426;6.972;2024-01-30T11:41:09;12.90;99.90
1878;DHT22;939;51.426;6.972;2024-01-30T11:43:36;12.90;99.90
1878;DHT22;939;51.426;6.972;2024-01-30T11:46:07;13.00;99.90
1878;DHT22;939;51.426;6.972;2024-01-30T11:48:35;13.00;99.90
1878;DHT22;939;51.426;6.972;2024-01-30T11:51:03;12.90;99.90
1878;DHT22;939;51.426;6.972;2024-01-30T11:53:29;13.00;99.90
1878;DHT22;939;51.426;6.972;2024-01-30T11:55:57;13.00;99.90
1878;DHT22;939;51.426;6.972;2024-01-30T11:58:25;13.00;99.90
1878;DHT22;939;51.426;6.972;2024-01-30T12:00:55;12.90;99.90
1878;DHT22;939;51.426;6.972;2024-01-30T12:03:23;12.80;99.90
1878;DHT22;939;51.426;6.972;2024-01-30T12:05:55;12.70;99.90
1878;DHT22;939;51.426;6.972;2024-01-30T12:08:22;12.70;99.90
1878;DHT22;939;51.426;6.972;2024-01-30T12:10:55;12.60;99.90
1878;DHT22;939;51.426;6.972;2024-01-30T12:13:23;12.70;99.90
1878;DHT22;939;51.426;6.972;2024-01-30T12:15:50;12.70;99.90
1878;DHT22;939;51.426;6.972;2024-01-30T12:18:19;12.70;99.90
1878;DHT22;939;51.426;6.972;2024-01-30T12:20:57;12.70;99.90
1878;DHT22;939;51.426;6.972;2024-01-30T12:23:24;12.70;99.90
1878;DHT22;939;51.426;6.972;2024-01-30T12:25:52;12.60;99.90
1878;DHT22;939;51.426;6.972;2024-01-30T12:28:19;12.70;99.90
1878;DHT22;939;51.426;6.972;2024-01-30T12:30:47;12.50;99.90
1878;DHT22;939;51.426;6.972;2024-01-30T12:33:16;12.60;99.90
1878;DHT22;939;51.426;6.972;2024-01-30T12:35:47;12.50;99.90
1878;DHT22;939;51.426;6.972;2024-01-30T12:38:14;12.60;99.90
1878;DHT22;939;51.426;6.972;2024-01-30T12:40:41;12.50;99.90
1878;DHT22;939;51.426;6.972;2024-01-30T12:43:08;12.60;99.90
1878;DHT22;939;51.426;6.972;2024-01-30T12:45:36;12.50;99.90
1878;DHT22;939;51.426;6.972;2024-01-30T12:48:04;12.50;99.90
1878;DHT22;939;51.426;6.972;2024-01-30T12:50:33;12.60;99.90
1878;DHT22;939;51.426;6.972;2024-01-30T12:53:02;12.40;99.90
1878;DHT22;939;51.426;6.972;2024-01-30T12:55:29;12.50;99.90
1878;DHT22;939;51.426;6.972;2024-01-30T12:57:56;12.50;99.90
1878;DHT22;939;51.426;6.972;2024-01-30T13:00:22;12.50;99.90
1878;DHT22;939;51.426;6.972;2024-01-30T13:02:50;12.50;99.90
1878;DHT22;939;51.426;6.972;2024-01-30T13:05:17;12.50;99.90
1878;DHT22;939;51.426;6.972;2024-01-30T13:07:44;12.60;99.90
1878;DHT22;939;51.426;6.972;2024-01-30T13:10:12;12.50;99.90
1878;DHT22;939;51.426;6.972;2024-01-30T13:12:39;12.40;99.90
1878;DHT22;939;51.426;6.972;2024-01-30T13:15:06;12.50;99.90
1878;DHT22;939;51.426;6.972;2024-01-30T13:17:34;12.50;99.90
1878;DHT22;939;51.426;6.972;2024-01-30T13:20:01;12.40;99.90
1878;DHT22;939;51.426;6.972;2024-01-30T13:22:29;12.40;99.90
1878;DHT22;939;51.426;6.972;2024-01-30T13:24:56;12.40;99.90
1878;DHT22;939;51.426;6.972;2024-01-30T13:27:25;12.40;99.90
1878;DHT22;939;51.426;6.972;2024-01-30T13:29:52;12.40;99.90
1878;DHT22;939;51.426;6.972;2024-01-30T13:32:19;12.40;99.90
1878;DHT22;939;51.426;6.972;2024-01-30T15:29:38;12.00;99.90
1878;DHT22;939;51.426;6.972;2024-01-30T15:32:10;12.00;99.90
1878;DHT22;939;51.426;6.972;2024-01-30T15:34:37;11.90;99.90
1878;DHT22;939;51.426;6.972;2024-01-30T15:37:10;11.90;99.90
1878;DHT22;939;51.426;6.972;2024-01-30T15:39:37;11.90;99.90
1878;DHT22;939;51.426;6.972;2024-01-30T15:42:05;11.90;99.90
1878;DHT22;939;51.426;6.972;2024-01-30T15:44:32;11.80;99.90
1878;DHT22;939;51.426;6.972;2024-01-30T15:47:00;11.80;99.90
1878;DHT22;939;51.426;6.972;2024-01-30T15:49:27;11.70;99.90
1878;DHT22;939;51.426;6.972;2024-01-30T15:51:55;11.60;99.90
1878;DHT22;939;51.426;6.972;2024-01-30T15:54:22;11.60;99.90
1878;DHT22;939;51.426;6.972;2024-01-30T15:56:49;11.60;99.90
1878;DHT22;939;51.426;6.972;2024-01-30T15:59:16;11.60;99.90
1878;DHT22;939;51.426;6.972;2024-01-30T16:01:43;11.50;99.90
1878;DHT22;939;51.426;6.972;2024-01-30T16:04:16;11.50;99.90
1878;DHT22;939;51.426;6.972;2024-01-30T16:06:43;11.50;99.90
1878;DHT22;939;51.426;6.972;2024-01-30T16:09:13;11.40;99.90
1878;DHT22;939;51.426;6.972;2024-01-30T16:11:41;11.40;99.90
1878;DHT22;939;51.426;6.972;2024-01-30T16:14:09;11.40;99.90
1878;DHT22;939;51.426;6.972;2024-01-30T16:16:39;11.40;99.90
1878;DHT22;939;51.426;6.972;2024-01-30T16:19:06;11.40;99.90
1878;DHT22;939;51.426;6.972;2024-01-30T16:21:34;11.40;99.90
1878;DHT22;939;51.426;6.972;2024-01-30T16:24:01;11.40;99.90
1878;DHT22;939;51.426;6.972;2024-01-30T16:26:29;11.30;99.90
1878;DHT22;939;51.426;6.972;2024-01-30T16:28:56;11.30;99.90
1878;DHT22;939;51.426;6.972;2024-01-30T16:31:26;11.30;99.90
1878;DHT22;939;51.426;6.972;2024-01-30T16:33:53;11.20;99.90
1878;DHT22;939;51.426;6.972;2024-01-30T16:36:22;11.20;99.90
1878;DHT22;939;51.426;6.972;2024-01-30T16:38:51;11.20;99.90
1878;DHT22;939;51.426;6.972;2024-01-30T16:41:18;11.20;99.90
1878;DHT22;939;51.426;6.972;2024-01-30T16:43:44;11.10;99.90
1878;DHT22;939;51.426;6.972;2024-01-30T16:46:11;11.10;99.90
1878;DHT22;939;51.426;6.972;2024-01-30T16:48:39;11.00;99.90
1878;DHT22;939;51.426;6.972;2024-01-30T16:51:06;11.00;99.90
1878;DHT22;939;51.426;6.972;2024-01-30T16:53:33;10.90;99.90
1878;DHT22;939;51.426;6.972;2024-01-30T16:56:04;10.90;99.90
1878;DHT22;939;51.426;6.972;2024-01-30T16:58:32;10.90;99.90
1878;DHT22;939;51.426;6.972;2024-01-30T17:00:59;11.00;99.90
1878;DHT22;939;51.426;6.972;2024-01-30T17:03:26;11.00;99.90
1878;DHT22;939;51.426;6.972;2024-01-30T17:05:53;11.00;99.90
1878;DHT22;939;51.426;6.972;2024-01-30T17:08:24;11.00;99.90
1878;DHT22;939;51.426;6.972;2024-01-30T17:10:51;11.00;99.90
1878;DHT22;939;51.426;6.972;2024-01-30T17:13:20;11.00;99.90
1878;DHT22;939;51.426;6.972;2024-01-30T17:15:47;11.10;99.90
1878;DHT22;939;51.426;6.972;2024-01-30T17:18:15;11.00;99.90
1878;DHT22;939;51.426;6.972;2024-01-30T17:20:44;11.00;99.90
1878;DHT22;939;51.426;6.972;2024-01-30T17:23:11;11.00;99.90
1878;DHT22;939;51.426;6.972;2024-01-30T17:25:38;11.00;99.90
1878;DHT22;939;51.426;6.972;2024-01-30T17:28:05;10.90;99.90
1878;DHT22;939;51.426;6.972;2024-01-30T17:30:34;10.90;99.90
1878;DHT22;939;51.426;6.972;2024-01-30T17:33:04;10.80;99.90
1878;DHT22;939;51.426;6.972;2024-01-30T17:35:31;10.80;99.90
1878;DHT22;939;51.426;6.972;2024-01-30T17:37:58;10.80;99.90
1878;DHT22;939;51.426;6.972;2024-01-30T17:40:25;10.80;99.90
1878;DHT22;939;51.426;6.972;2024-01-30T17:42:52;10.70;99.90
1878;DHT22;939;51.426;6.972;2024-01-30T17:45:19;10.70;99.90
1878;DHT22;939;51.426;6.972;2024-01-30T17:47:47;10.70;99.90
1878;DHT22;939;51.426;6.972;2024-01-30T17:50:15;10.70;99.90
1878;DHT22;939;51.426;6.972;2024-01-30T17:52:42;10.60;99.90
1878;DHT22;939;51.426;6.972;2024-01-30T17:55:09;10.50;99.90
1878;DHT22;939;51.426;6.972;2024-01-30T17:57:39;10.60;99.90
1878;DHT22;939;51.426;6.972;2024-01-30T18:00:07;10.50;99.90
1878;DHT22;939;51.426;6.972;2024-01-30T18:02:34;10.40;99.90
1878;DHT22;939;51.426;6.972;2024-01-30T18:05:03;10.40;99.90
1878;DHT22;939;51.426;6.972;2024-01-30T18:07:31;10.40;99.90
1878;DHT22;939;51.426;6.972;2024-01-30T18:09:58;10.30;99.90
1878;DHT22;939;51.426;6.972;2024-01-30T18:12:25;10.30;99.90
1878;DHT22;939;51.426;6.972;2024-01-30T18:14:52;10.20;99.90
1878;DHT22;939;51.426;6.972;2024-01-30T18:17:18;10.20;99.90
1878;DHT22;939;51.426;6.972;2024-01-30T18:19:45;10.10;99.90
1878;DHT22;939;51.426;6.972;2024-01-30T18:22:14;10.10;99.90
1878;DHT22;939;51.426;6.972;2024-01-30T18:24:41;10.10;99.90
1878;DHT22;939;51.426;6.972;2024-01-30T18:27:08;10.10;99.90